Time;durP1;ratioP1;P1;durP2;ratioP2;P2;SDS_P1;SDS_P2;PMS_P1;PMS_P2;Temp;Humidity;BMP_temperature;BMP_pressure;BME280_temperature;BME280_humidity;BME280_pressure;Samples;Min_cycle;Max_cycle;Signal;HPM_P1;HPM_P2
2020/12/22 00:01:33;;;;;;;;;;;8.60;99.90;;;;;;5034577;28;19929;-82
2020/12/22 00:04:00;;;;;;;;;;;8.60;99.90;;;;;;5034402;28;19925;-83
2020/12/22 00:06:26;;;;;;;;;;;8.60;99.90;;;;;;5034503;28;19933;-83
2020/12/22 00:08:52;;;;;;;;;;;8.50;99.90;;;;;;5034403;28;19987;-81
2020/12/22 00:11:19;;;;;;;;;;;8.50;99.90;;;;;;5037494;28;20258;-81
2020/12/22 00:13:46;;;;;;;;;;;8.50;99.90;;;;;;5038135;28;19925;-83
2020/12/22 00:16:12;;;;;;;;;;;8.50;99.90;;;;;;5038256;28;19925;-80
2020/12/22 00:18:38;;;;;;;;;;;8.40;99.90;;;;;;5038040;28;19936;-82
2020/12/22 00:21:05;;;;;;;;;;;8.40;99.90;;;;;;5037984;28;20032;-82
2020/12/22 00:23:31;;;;;;;;;;;8.40;99.90;;;;;;5037662;28;20334;-80
2020/12/22 00:25:57;;;;;;;;;;;8.40;99.90;;;;;;5037706;28;19986;-81
2020/12/22 00:28:24;;;;;;;;;;;8.40;99.90;;;;;;5037893;28;19925;-80
2020/12/22 00:30:51;;;;;;;;;;;8.40;99.90;;;;;;5037913;28;20227;-80
2020/12/22 00:33:17;;;;;;;;;;;8.40;99.90;;;;;;5037919;28;19925;-80
2020/12/22 00:35:43;;;;;;;;;;;8.40;99.90;;;;;;5037675;28;19936;-80
2020/12/22 00:38:09;;;;;;;;;;;8.40;99.90;;;;;;5037473;28;19925;-79
2020/12/22 00:40:36;;;;;;;;;;;8.40;99.90;;;;;;5037394;28;19925;-78
2020/12/22 00:43:03;;;;;;;;;;;8.40;99.90;;;;;;5037910;28;19925;-78
2020/12/22 00:45:30;;;;;;;;;;;8.40;99.90;;;;;;5037369;28;19925;-79
2020/12/22 00:47:56;;;;;;;;;;;8.40;99.90;;;;;;5037094;28;19925;-78
2020/12/22 00:50:22;;;;;;;;;;;8.40;99.90;;;;;;5037467;28;19926;-77
2020/12/22 00:52:49;;;;;;;;;;;8.40;99.90;;;;;;5037490;28;19933;-78
2020/12/22 00:55:15;;;;;;;;;;;8.40;99.90;;;;;;5037148;28;19960;-78
2020/12/22 00:57:41;;;;;;;;;;;8.30;99.90;;;;;;5037419;28;19925;-79
2020/12/22 01:00:11;;;;;;;;;;;8.30;99.90;;;;;;5037109;28;19936;-77
2020/12/22 01:02:38;;;;;;;;;;;8.30;99.90;;;;;;5037000;28;20377;-78
2020/12/22 01:05:04;;;;;;;;;;;8.30;99.90;;;;;;5037120;28;19929;-77
2020/12/22 01:07:31;;;;;;;;;;;8.20;99.90;;;;;;5037341;28;19925;-78
2020/12/22 01:09:57;;;;;;;;;;;8.20;99.90;;;;;;5036905;28;19925;-78
2020/12/22 01:12:23;;;;;;;;;;;8.20;99.90;;;;;;5037135;28;19925;-77
2020/12/22 01:14:49;;;;;;;;;;;8.20;99.90;;;;;;5036841;28;19925;-77
2020/12/22 01:17:16;;;;;;;;;;;8.20;99.90;;;;;;5037001;28;20002;-77
2020/12/22 01:19:43;;;;;;;;;;;8.20;99.90;;;;;;5036645;28;19925;-77
2020/12/22 01:22:09;;;;;;;;;;;8.20;99.90;;;;;;5036149;28;19924;-78
2020/12/22 01:24:35;;;;;;;;;;;8.20;99.90;;;;;;5036708;28;19944;-77
2020/12/22 01:27:02;;;;;;;;;;;8.20;99.90;;;;;;5037051;28;19987;-77
2020/12/22 01:29:28;;;;;;;;;;;8.20;99.90;;;;;;5036373;28;19936;-78
2020/12/22 01:31:54;;;;;;;;;;;8.20;99.90;;;;;;5036706;28;19929;-77
2020/12/22 01:34:21;;;;;;;;;;;8.20;99.90;;;;;;5036728;28;19979;-77
2020/12/22 01:36:48;;;;;;;;;;;8.10;99.90;;;;;;5036715;28;19932;-77
2020/12/22 01:39:14;;;;;;;;;;;8.10;99.90;;;;;;5036171;28;19935;-77
2020/12/22 01:41:40;;;;;;;;;;;8.10;99.90;;;;;;5017047;28;20314;-77
2020/12/22 01:44:07;;;;;;;;;;;8.20;99.90;;;;;;5016668;28;19925;-77
2020/12/22 01:46:34;;;;;;;;;;;8.20;99.90;;;;;;5016999;28;19937;-77
2020/12/22 01:49:00;;;;;;;;;;;8.10;99.90;;;;;;5016603;28;19944;-77
2020/12/22 01:51:27;;;;;;;;;;;8.20;99.90;;;;;;5016179;28;20390;-77
2020/12/22 01:53:55;;;;;;;;;;;8.20;99.90;;;;;;5016372;28;19929;-77
2020/12/22 01:56:21;;;;;;;;;;;8.20;99.90;;;;;;5016605;28;19925;-77
2020/12/22 01:58:48;;;;;;;;;;;8.20;99.90;;;;;;5016416;28;19925;-77
2020/12/22 02:01:14;;;;;;;;;;;8.20;99.90;;;;;;5032492;28;20293;-77
2020/12/22 02:03:40;;;;;;;;;;;8.20;99.90;;;;;;5035973;28;19979;-77
2020/12/22 02:06:07;;;;;;;;;;;8.20;99.90;;;;;;5035958;28;19925;-77
2020/12/22 02:08:33;;;;;;;;;;;8.10;99.90;;;;;;5035825;28;19940;-76
2020/12/22 02:11:00;;;;;;;;;;;8.10;99.90;;;;;;5035685;28;20365;-77
2020/12/22 02:13:26;;;;;;;;;;;8.10;99.90;;;;;;5035922;28;19991;-77
2020/12/22 02:15:53;;;;;;;;;;;8.00;99.90;;;;;;5035874;28;19932;-77
2020/12/22 02:18:19;;;;;;;;;;;7.90;99.90;;;;;;5035998;28;19925;-77
2020/12/22 02:20:45;;;;;;;;;;;7.90;99.90;;;;;;5035466;28;19925;-77
2020/12/22 02:23:12;;;;;;;;;;;7.80;99.90;;;;;;5035522;28;20262;-76
2020/12/22 02:25:44;;;;;;;;;;;7.80;99.90;;;;;;5035794;28;19925;-77
2020/12/22 02:28:10;;;;;;;;;;;7.80;99.90;;;;;;5035533;28;19925;-77
2020/12/22 02:30:37;;;;;;;;;;;7.70;99.90;;;;;;5035198;28;20270;-77
2020/12/22 02:33:03;;;;;;;;;;;7.70;99.90;;;;;;5034862;28;19936;-77
2020/12/22 02:35:29;;;;;;;;;;;7.70;99.90;;;;;;5035180;28;20265;-77
2020/12/22 02:37:56;;;;;;;;;;;7.70;99.90;;;;;;5035576;28;19936;-77
2020/12/22 02:40:23;;;;;;;;;;;7.70;99.90;;;;;;5035166;28;19925;-77
2020/12/22 02:42:49;;;;;;;;;;;7.60;99.90;;;;;;5035438;28;20243;-77
2020/12/22 02:45:15;;;;;;;;;;;7.60;99.90;;;;;;5035450;28;19936;-77
2020/12/22 02:47:42;;;;;;;;;;;7.60;99.90;;;;;;5035302;28;20266;-76
2020/12/22 02:50:08;;;;;;;;;;;7.60;99.90;;;;;;5035040;28;19926;-77
2020/12/22 02:52:34;;;;;;;;;;;7.60;99.90;;;;;;5035041;28;20254;-77
2020/12/22 02:55:00;;;;;;;;;;;7.60;99.90;;;;;;5035596;28;19932;-78
2020/12/22 02:57:28;;;;;;;;;;;7.60;99.90;;;;;;5035078;28;20346;-77
2020/12/22 02:59:54;;;;;;;;;;;7.60;99.90;;;;;;5034815;28;19963;-77
2020/12/22 03:02:20;;;;;;;;;;;7.60;99.90;;;;;;5034962;28;19925;-77
2020/12/22 03:04:46;;;;;;;;;;;7.60;99.90;;;;;;5034987;28;19925;-77
2020/12/22 03:07:13;;;;;;;;;;;7.60;99.90;;;;;;5034956;28;19925;-77
2020/12/22 03:09:39;;;;;;;;;;;7.50;99.90;;;;;;5035174;28;19936;-77
2020/12/22 03:12:06;;;;;;;;;;;7.50;99.90;;;;;;5034895;28;19925;-77
2020/12/22 03:14:33;;;;;;;;;;;7.50;99.90;;;;;;5034841;28;19925;-77
2020/12/22 03:16:59;;;;;;;;;;;7.40;99.90;;;;;;5034987;28;19925;-77
2020/12/22 03:19:25;;;;;;;;;;;7.40;99.90;;;;;;5034781;28;19925;-77
2020/12/22 03:21:52;;;;;;;;;;;7.40;99.90;;;;;;5034835;28;19955;-77
2020/12/22 03:24:18;;;;;;;;;;;7.40;99.90;;;;;;5035001;28;19936;-77
2020/12/22 03:26:44;;;;;;;;;;;7.30;99.90;;;;;;5034743;28;19944;-78
2020/12/22 03:29:10;;;;;;;;;;;7.30;99.90;;;;;;5034813;28;20354;-77
2020/12/22 03:31:38;;;;;;;;;;;7.30;99.90;;;;;;5034781;28;19925;-77
2020/12/22 03:34:04;;;;;;;;;;;7.30;99.90;;;;;;5034741;28;19929;-77
2020/12/22 03:36:30;;;;;;;;;;;7.20;99.90;;;;;;5034643;28;19952;-77
2020/12/22 03:38:56;;;;;;;;;;;7.20;99.90;;;;;;5034801;28;20313;-77
2020/12/22 03:41:23;;;;;;;;;;;7.10;99.90;;;;;;5034814;28;19925;-76
2020/12/22 03:43:49;;;;;;;;;;;7.00;99.90;;;;;;5034564;28;19932;-77
2020/12/22 03:46:15;;;;;;;;;;;6.90;99.90;;;;;;5038032;28;19936;-77
2020/12/22 03:48:42;;;;;;;;;;;6.90;99.90;;;;;;5038478;28;19937;-76
2020/12/22 03:51:09;;;;;;;;;;;6.90;99.90;;;;;;5038429;28;19925;-77
2020/12/22 03:53:35;;;;;;;;;;;6.80;99.90;;;;;;5038545;28;20235;-77
2020/12/22 03:56:01;;;;;;;;;;;6.80;99.90;;;;;;5038507;28;19936;-77
2020/12/22 03:58:27;;;;;;;;;;;6.70;99.90;;;;;;5038564;28;20342;-77
2020/12/22 04:00:54;;;;;;;;;;;6.70;99.90;;;;;;5039919;28;19925;-76
2020/12/22 04:03:20;;;;;;;;;;;6.60;99.90;;;;;;5039270;28;19994;-77
2020/12/22 04:05:47;;;;;;;;;;;6.60;99.90;;;;;;5038131;28;19995;-77
2020/12/22 04:08:13;;;;;;;;;;;6.50;99.90;;;;;;5038132;28;20515;-77
2020/12/22 04:10:40;;;;;;;;;;;6.50;99.90;;;;;;5038262;28;19925;-77
2020/12/22 04:13:06;;;;;;;;;;;6.50;99.90;;;;;;5038015;28;19925;-77
2020/12/22 04:15:32;;;;;;;;;;;6.50;99.90;;;;;;5038086;28;19925;-77
2020/12/22 04:17:58;;;;;;;;;;;6.40;99.90;;;;;;5037983;28;20003;-77
2020/12/22 04:20:25;;;;;;;;;;;6.40;99.90;;;;;;5038080;28;19933;-77
2020/12/22 04:22:52;;;;;;;;;;;6.30;99.90;;;;;;5037925;28;19926;-77
2020/12/22 04:25:18;;;;;;;;;;;6.30;99.90;;;;;;5037980;28;20363;-77
2020/12/22 04:27:44;;;;;;;;;;;6.20;99.90;;;;;;5038259;28;19933;-77
2020/12/22 04:30:11;;;;;;;;;;;6.20;99.90;;;;;;5037662;28;19925;-77
2020/12/22 04:32:37;;;;;;;;;;;6.10;99.90;;;;;;5037702;28;20265;-77
2020/12/22 04:35:03;;;;;;;;;;;6.10;99.90;;;;;;5037871;28;19925;-77
2020/12/22 04:37:29;;;;;;;;;;;6.00;99.90;;;;;;5038020;28;20300;-77
2020/12/22 04:39:57;;;;;;;;;;;6.00;99.90;;;;;;5037631;28;19925;-77
2020/12/22 04:42:24;;;;;;;;;;;5.90;99.90;;;;;;5037677;28;19925;-77
2020/12/22 04:44:50;;;;;;;;;;;5.90;99.90;;;;;;5037644;28;19925;-77
2020/12/22 04:47:16;;;;;;;;;;;5.90;99.90;;;;;;5037384;28;19925;-77
2020/12/22 04:49:43;;;;;;;;;;;5.90;99.90;;;;;;5037207;28;19925;-77
2020/12/22 04:52:09;;;;;;;;;;;5.80;99.90;;;;;;5037330;28;19924;-77
2020/12/22 04:54:37;;;;;;;;;;;5.80;99.90;;;;;;5037331;28;19936;-77
2020/12/22 04:57:04;;;;;;;;;;;5.80;99.90;;;;;;5036387;28;19951;-76
2020/12/22 04:59:31;;;;;;;;;;;5.70;99.90;;;;;;5036970;28;19925;-76
2020/12/22 05:01:57;;;;;;;;;;;5.70;99.90;;;;;;5037029;28;19955;-76
2020/12/22 05:04:23;;;;;;;;;;;5.60;99.90;;;;;;5037332;28;19925;-76
2020/12/22 05:06:51;;;;;;;;;;;5.60;99.90;;;;;;5039206;28;19948;-75
2020/12/22 05:09:18;;;;;;;;;;;5.60;99.90;;;;;;5040511;28;19925;-77
2020/12/22 05:11:45;;;;;;;;;;;5.50;99.90;;;;;;5036934;28;19937;-77
2020/12/22 05:14:14;;;;;;;;;;;5.50;99.90;;;;;;5037038;28;20384;-77
2020/12/22 05:16:41;;;;;;;;;;;5.40;99.90;;;;;;5036885;28;19925;-77
2020/12/22 05:19:10;;;;;;;;;;;5.40;99.90;;;;;;5036912;28;19929;-77
2020/12/22 05:21:38;;;;;;;;;;;5.30;99.90;;;;;;5036782;28;20361;-77
2020/12/22 05:24:05;;;;;;;;;;;5.30;99.90;;;;;;5036791;28;19936;-77
2020/12/22 05:26:36;;;;;;;;;;;5.30;99.90;;;;;;5036676;28;19975;-77
2020/12/22 05:29:10;;;;;;;;;;;5.20;99.90;;;;;;5036557;28;20265;-77
2020/12/22 05:31:47;;;;;;;;;;;5.20;99.90;;;;;;5036753;28;19925;-77
2020/12/22 05:34:15;;;;;;;;;;;5.10;99.90;;;;;;5036784;28;19929;-77
2020/12/22 05:36:43;;;;;;;;;;;5.10;99.90;;;;;;5036532;28;19925;-77
2020/12/22 05:39:10;;;;;;;;;;;5.00;99.90;;;;;;5036465;28;19972;-77
2020/12/22 05:41:37;;;;;;;;;;;5.00;99.90;;;;;;5036391;28;19925;-77
2020/12/22 05:44:04;;;;;;;;;;;4.90;99.90;;;;;;5036363;28;19925;-77
2020/12/22 05:46:32;;;;;;;;;;;4.90;99.90;;;;;;5036746;28;19925;-77
2020/12/22 05:49:04;;;;;;;;;;;4.90;99.90;;;;;;5036153;28;19925;-77
2020/12/22 05:51:33;;;;;;;;;;;4.90;99.90;;;;;;5035379;28;20295;-77
2020/12/22 05:54:02;;;;;;;;;;;4.90;99.90;;;;;;5036256;28;19936;-77
2020/12/22 05:56:30;;;;;;;;;;;4.90;99.90;;;;;;5035946;28;19925;-77
2020/12/22 05:58:57;;;;;;;;;;;4.80;99.90;;;;;;5036167;28;19955;-77
2020/12/22 06:01:31;;;;;;;;;;;4.80;99.90;;;;;;5035931;28;20404;-77
2020/12/22 06:04:02;;;;;;;;;;;4.80;99.90;;;;;;5036161;28;19936;-77
2020/12/22 06:06:31;;;;;;;;;;;4.80;99.90;;;;;;5036071;28;20000;-77
2020/12/22 06:08:58;;;;;;;;;;;4.80;99.90;;;;;;5035740;28;19948;-77
2020/12/22 06:11:26;;;;;;;;;;;4.80;99.90;;;;;;5035781;28;19932;-77
2020/12/22 06:13:54;;;;;;;;;;;4.80;99.90;;;;;;5035986;28;19932;-77
2020/12/22 06:16:22;;;;;;;;;;;4.70;99.90;;;;;;5035941;28;19925;-77
2020/12/22 06:18:50;;;;;;;;;;;4.70;99.90;;;;;;5035697;28;19964;-77
2020/12/22 06:21:18;;;;;;;;;;;4.60;99.90;;;;;;5035458;28;20373;-77
2020/12/22 06:23:46;;;;;;;;;;;4.60;99.90;;;;;;5035545;28;19929;-77
2020/12/22 06:26:13;;;;;;;;;;;4.60;99.90;;;;;;5035804;28;19925;-77
2020/12/22 06:28:41;;;;;;;;;;;4.50;99.90;;;;;;5035448;28;19925;-77
2020/12/22 06:31:18;;;;;;;;;;;4.50;99.90;;;;;;5035402;28;19936;-77
2020/12/22 06:33:46;;;;;;;;;;;4.50;99.90;;;;;;5035513;28;20294;-77
2020/12/22 06:36:14;;;;;;;;;;;4.50;99.90;;;;;;5035323;28;19925;-77
2020/12/22 06:38:47;;;;;;;;;;;4.40;99.90;;;;;;5035264;28;19969;-76
2020/12/22 06:41:31;;;;;;;;;;;4.40;99.90;;;;;;5035371;28;19968;-76
2020/12/22 06:43:59;;;;;;;;;;;4.40;99.90;;;;;;5015842;28;19925;-76
2020/12/22 06:46:40;;;;;;;;;;;4.40;99.90;;;;;;5034822;28;20285;-76
2020/12/22 06:49:08;;;;;;;;;;;4.40;99.90;;;;;;5035159;28;19975;-76
2020/12/22 06:51:36;;;;;;;;;;;4.40;99.90;;;;;;5035204;28;19929;-76
2020/12/22 06:54:04;;;;;;;;;;;4.40;99.90;;;;;;5035218;28;19925;-76
2020/12/22 06:56:42;;;;;;;;;;;4.40;99.90;;;;;;5035114;28;19932;-76
2020/12/22 06:59:09;;;;;;;;;;;4.40;99.90;;;;;;5035017;28;19936;-76
2020/12/22 07:01:37;;;;;;;;;;;4.30;99.90;;;;;;5035158;28;19975;-76
2020/12/22 07:04:21;;;;;;;;;;;4.30;99.90;;;;;;5035229;28;19941;-76
2020/12/22 07:06:56;;;;;;;;;;;4.30;99.90;;;;;;5035325;28;20281;-76
2020/12/22 07:09:25;;;;;;;;;;;4.30;99.90;;;;;;5035003;28;20354;-76
2020/12/22 07:11:52;;;;;;;;;;;4.40;99.90;;;;;;5035220;28;19925;-76
2020/12/22 07:14:19;;;;;;;;;;;4.40;99.90;;;;;;5035016;28;20345;-77
2020/12/22 07:16:50;;;;;;;;;;;4.40;99.90;;;;;;5035365;28;20301;-77
2020/12/22 07:19:21;;;;;;;;;;;4.50;99.90;;;;;;5035241;28;19933;-77
2020/12/22 07:21:50;;;;;;;;;;;4.50;99.90;;;;;;5039363;28;19925;-77
2020/12/22 07:24:18;;;;;;;;;;;4.60;99.90;;;;;;5038915;28;20384;-76
2020/12/22 07:26:47;;;;;;;;;;;4.50;99.90;;;;;;5039151;28;20341;-77
2020/12/22 07:29:14;;;;;;;;;;;4.50;99.90;;;;;;5038994;28;19925;-77
2020/12/22 07:31:42;;;;;;;;;;;4.60;99.90;;;;;;5038804;28;20403;-77
2020/12/22 07:34:10;;;;;;;;;;;4.60;99.90;;;;;;5038877;28;19925;-77
2020/12/22 07:36:38;;;;;;;;;;;4.60;99.90;;;;;;5038592;28;19983;-77
2020/12/22 07:39:27;;;;;;;;;;;4.60;99.90;;;;;;5038952;28;19925;-77
2020/12/22 07:41:55;;;;;;;;;;;4.70;99.90;;;;;;5030680;28;20362;-77
2020/12/22 07:44:23;;;;;;;;;;;4.70;99.90;;;;;;5038615;28;19936;-77
2020/12/22 07:46:52;;;;;;;;;;;4.70;99.90;;;;;;5038654;28;20316;-77
2020/12/22 07:49:19;;;;;;;;;;;4.70;99.90;;;;;;5038320;28;20346;-78
2020/12/22 07:51:46;;;;;;;;;;;4.70;99.90;;;;;;5038747;28;20007;-77
2020/12/22 07:54:14;;;;;;;;;;;4.70;99.90;;;;;;5038380;28;19933;-77
2020/12/22 07:56:41;;;;;;;;;;;4.70;99.90;;;;;;5038516;28;19926;-77
2020/12/22 07:59:10;;;;;;;;;;;4.70;99.90;;;;;;5038391;28;20384;-77
2020/12/22 08:01:41;;;;;;;;;;;4.70;99.90;;;;;;5038324;28;20342;-77
2020/12/22 08:04:12;;;;;;;;;;;4.80;99.90;;;;;;5038423;28;19937;-77
2020/12/22 08:06:40;;;;;;;;;;;4.80;99.90;;;;;;5038236;28;19965;-77
2020/12/22 08:09:07;;;;;;;;;;;4.80;99.90;;;;;;5038215;28;19933;-77
2020/12/22 08:11:35;;;;;;;;;;;4.90;99.90;;;;;;5038436;28;19936;-77
2020/12/22 08:14:04;;;;;;;;;;;4.90;99.90;;;;;;5037801;28;19925;-77
2020/12/22 08:16:34;;;;;;;;;;;4.90;99.90;;;;;;5037874;28;20002;-77
2020/12/22 08:19:02;;;;;;;;;;;4.90;99.90;;;;;;5038248;28;19976;-77
2020/12/22 08:21:29;;;;;;;;;;;4.90;99.90;;;;;;5037655;28;19936;-77
2020/12/22 08:23:59;;;;;;;;;;;4.90;99.90;;;;;;5037930;28;19959;-77
2020/12/22 08:26:26;;;;;;;;;;;4.90;99.90;;;;;;5037843;28;19983;-77
2020/12/22 08:28:54;;;;;;;;;;;4.90;99.90;;;;;;5037819;28;19925;-77
2020/12/22 08:31:23;;;;;;;;;;;4.90;99.90;;;;;;5036699;28;19995;-77
2020/12/22 08:33:52;;;;;;;;;;;4.90;99.90;;;;;;5037962;28;19979;-77
2020/12/22 08:36:20;;;;;;;;;;;5.00;99.90;;;;;;5037736;28;20262;-77
2020/12/22 08:38:47;;;;;;;;;;;4.90;99.90;;;;;;5037649;28;19964;-77
2020/12/22 08:41:18;;;;;;;;;;;5.00;99.90;;;;;;5037739;28;20710;-78
2020/12/22 08:43:49;;;;;;;;;;;5.00;99.90;;;;;;5037550;28;19956;-77
2020/12/22 08:46:17;;;;;;;;;;;5.00;99.90;;;;;;5037357;28;19929;-77
2020/12/22 08:48:45;;;;;;;;;;;5.10;99.90;;;;;;5037542;28;20305;-77
2020/12/22 08:51:15;;;;;;;;;;;5.10;99.90;;;;;;5037169;28;19925;-77
2020/12/22 08:53:48;;;;;;;;;;;5.00;99.90;;;;;;5036238;28;19933;-77
2020/12/22 08:56:15;;;;;;;;;;;4.90;99.90;;;;;;5037274;28;20005;-77
2020/12/22 08:58:52;;;;;;;;;;;4.90;99.90;;;;;;5037452;28;19925;-77
2020/12/22 09:01:20;;;;;;;;;;;4.80;99.90;;;;;;5037244;28;19925;-77
2020/12/22 09:03:51;;;;;;;;;;;4.70;99.90;;;;;;5037222;28;19987;-77
2020/12/22 09:06:18;;;;;;;;;;;4.70;99.90;;;;;;5037001;28;20273;-77
2020/12/22 09:08:46;;;;;;;;;;;4.70;99.90;;;;;;5037071;28;20257;-77
2020/12/22 09:11:20;;;;;;;;;;;4.70;99.90;;;;;;5037019;28;19925;-77
2020/12/22 09:13:57;;;;;;;;;;;4.70;99.90;;;;;;5036972;28;20408;-77
2020/12/22 09:16:25;;;;;;;;;;;4.70;99.90;;;;;;5036983;28;19936;-77
2020/12/22 11:42:50;;;;;;;;;;;5.70;99.90;;;;;;5346800;23;19916;-81
2020/12/22 11:45:38;;;;;;;;;;;7.30;99.90;;;;;;5034892;28;19910;-80
2020/12/22 13:14:57;;;;;;;;;;;6.10;99.90;;;;;;6077703;23;19945;-81
2020/12/22 13:17:27;;;;;;;;;;;5.00;99.90;;;;;;5007213;28;19926;-80
2020/12/22 13:19:54;;;;;;;;;;;6.10;99.90;;;;;;5001910;28;20349;-78
2020/12/22 13:22:22;;;;;;;;;;;6.10;99.90;;;;;;4999621;28;19977;-78
2020/12/22 13:24:50;;;;;;;;;;;6.10;99.90;;;;;;4998136;28;19926;-77
2020/12/22 13:27:18;;;;;;;;;;;6.10;99.90;;;;;;5000497;28;19936;-77
2020/12/22 13:32:30;;;;;;;;;;;6.10;99.90;;;;;;5362092;23;19940;-79
2020/12/22 13:34:57;;;;;;;;;;;7.80;99.90;;;;;;5041922;28;19933;-79
2020/12/22 13:37:23;;;;;;;;;;;6.20;99.90;;;;;;5037159;28;19935;-80
2020/12/22 13:39:49;;;;;;;;;;;6.10;99.90;;;;;;5037713;28;20269;-77
2020/12/22 13:42:16;;;;;;;;;;;6.10;99.90;;;;;;5037634;28;19925;-77
2020/12/22 13:44:42;;;;;;;;;;;6.10;99.90;;;;;;5037191;28;19936;-77
2020/12/22 13:47:09;;;;;;;;;;;6.10;99.90;;;;;;5037100;28;19925;-77
2020/12/22 13:49:38;;;;;;;;;;;6.10;99.90;;;;;;5037917;28;19925;-77
2020/12/22 13:52:07;;;;;;;;;;;6.10;99.90;;;;;;5037289;28;19925;-77
2020/12/22 13:54:36;;;;;;;;;;;6.10;99.90;;;;;;5019780;28;19937;-77
2020/12/22 13:57:04;;;;;;;;;;;6.20;99.90;;;;;;5017379;28;19930;-77
2020/12/22 13:59:31;;;;;;;;;;;6.10;99.90;;;;;;5018939;28;20342;-77
2020/12/22 14:02:02;;;;;;;;;;;6.10;99.90;;;;;;5037233;28;19925;-77
2020/12/22 14:04:28;;;;;;;;;;;6.10;99.90;;;;;;5037156;28;19925;-78
2020/12/22 14:07:00;;;;;;;;;;;6.10;99.90;;;;;;5036995;28;19936;-77
2020/12/22 14:09:28;;;;;;;;;;;6.10;99.90;;;;;;5037173;28;20313;-77
2020/12/22 14:11:59;;;;;;;;;;;6.10;99.90;;;;;;5036804;28;19925;-77
2020/12/22 14:14:26;;;;;;;;;;;6.00;99.90;;;;;;5037063;28;19937;-77
2020/12/22 14:16:54;;;;;;;;;;;6.10;99.90;;;;;;5036766;28;19925;-77
2020/12/22 14:19:22;;;;;;;;;;;6.10;99.90;;;;;;5036476;28;19925;-77
2020/12/22 14:21:49;;;;;;;;;;;6.00;99.90;;;;;;5036504;28;19995;-77
2020/12/22 14:24:17;;;;;;;;;;;6.00;99.90;;;;;;5036169;28;20320;-77
2020/12/22 14:26:43;;;;;;;;;;;6.10;99.90;;;;;;5035711;28;19933;-77
2020/12/22 14:29:09;;;;;;;;;;;6.10;99.90;;;;;;5036724;28;19940;-78
2020/12/22 14:34:11;;;;;;;;;;;6.10;99.90;;;;;;5163481;23;19910;-78
2020/12/22 14:36:37;;;;;;;;;;;6.10;99.90;;;;;;5015789;28;19925;-76
2020/12/22 14:39:03;;;;;;;;;;;6.20;99.90;;;;;;5015751;28;19933;-76
2020/12/22 14:41:30;;;;;;;;;;;6.10;99.90;;;;;;5016020;28;20270;-76
2020/12/22 14:43:57;;;;;;;;;;;6.10;99.90;;;;;;5015808;28;19925;-76
